sensor_id;sensor_type;location;lat;lon;timestamp;P1;durP1;ratioP1;P2;durP2;ratioP2
80567;SDS011;69922;45.656;25.586;2023-07-28T00:00:11;4.10;;;2.50;;
80567;SDS011;69922;45.656;25.586;2023-07-28T00:01:39;3.20;;;2.00;;
80567;SDS011;69922;45.656;25.586;2023-07-28T00:02:45;5.30;;;1.90;;
80567;SDS011;69922;45.656;25.586;2023-07-28T00:03:52;4.00;;;1.90;;
80567;SDS011;69922;45.656;25.586;2023-07-28T00:04:58;2.90;;;2.00;;
80567;SDS011;69922;45.656;25.586;2023-07-28T00:06:04;2.80;;;2.00;;
80567;SDS011;69922;45.656;25.586;2023-07-28T00:07:10;4.70;;;1.70;;
80567;SDS011;69922;45.656;25.586;2023-07-28T00:08:16;2.70;;;1.90;;
80567;SDS011;69922;45.656;25.586;2023-07-28T00:09:23;4.30;;;1.90;;
80567;SDS011;69922;45.656;25.586;2023-07-28T00:10:29;2.70;;;1.70;;
80567;SDS011;69922;45.656;25.586;2023-07-28T00:11:36;2.30;;;1.70;;
80567;SDS011;69922;45.656;25.586;2023-07-28T00:12:42;3.60;;;2.30;;
80567;SDS011;69922;45.656;25.586;2023-07-28T00:13:48;4.80;;;1.80;;
80567;SDS011;69922;45.656;25.586;2023-07-28T00:14:54;4.10;;;2.00;;
80567;SDS011;69922;45.656;25.586;2023-07-28T00:16:00;2.80;;;1.70;;
80567;SDS011;69922;45.656;25.586;2023-07-28T00:17:08;5.10;;;1.80;;
80567;SDS011;69922;45.656;25.586;2023-07-28T00:18:14;2.40;;;2.00;;
80567;SDS011;69922;45.656;25.586;2023-07-28T00:19:23;2.70;;;1.80;;
80567;SDS011;69922;45.656;25.586;2023-07-28T00:20:29;3.30;;;2.10;;
80567;SDS011;69922;45.656;25.586;2023-07-28T00:21:35;3.70;;;2.30;;
80567;SDS011;69922;45.656;25.586;2023-07-28T00:22:42;5.60;;;2.20;;
80567;SDS011;69922;45.656;25.586;2023-07-28T00:23:49;3.80;;;2.10;;
80567;SDS011;69922;45.656;25.586;2023-07-28T00:24:55;2.40;;;1.80;;
80567;SDS011;69922;45.656;25.586;2023-07-28T00:26:01;2.60;;;2.00;;
80567;SDS011;69922;45.656;25.586;2023-07-28T00:27:08;3.50;;;1.70;;
80567;SDS011;69922;45.656;25.586;2023-07-28T00:28:14;2.40;;;1.60;;
80567;SDS011;69922;45.656;25.586;2023-07-28T00:29:20;3.70;;;1.60;;
80567;SDS011;69922;45.656;25.586;2023-07-28T00:30:26;4.70;;;1.90;;
80567;SDS011;69922;45.656;25.586;2023-07-28T00:31:32;3.50;;;2.20;;
80567;SDS011;69922;45.656;25.586;2023-07-28T00:32:38;2.40;;;2.00;;
80567;SDS011;69922;45.656;25.586;2023-07-28T00:33:44;3.50;;;2.20;;
80567;SDS011;69922;45.656;25.586;2023-07-28T00:34:51;4.70;;;2.10;;
80567;SDS011;69922;45.656;25.586;2023-07-28T00:35:57;4.00;;;2.40;;
80567;SDS011;69922;45.656;25.586;2023-07-28T00:37:05;3.70;;;2.20;;
80567;SDS011;69922;45.656;25.586;2023-07-28T00:38:11;4.70;;;2.20;;
80567;SDS011;69922;45.656;25.586;2023-07-28T00:39:17;4.10;;;2.10;;
80567;SDS011;69922;45.656;25.586;2023-07-28T00:40:24;2.30;;;1.90;;
80567;SDS011;69922;45.656;25.586;2023-07-28T00:41:30;4.00;;;2.30;;
80567;SDS011;69922;45.656;25.586;2023-07-28T00:42:36;3.00;;;2.30;;
80567;SDS011;69922;45.656;25.586;2023-07-28T00:43:42;2.60;;;2.10;;
80567;SDS011;69922;45.656;25.586;2023-07-28T00:44:48;5.30;;;2.90;;
80567;SDS011;69922;45.656;25.586;2023-07-28T00:45:54;3.90;;;2.60;;
80567;SDS011;69922;45.656;25.586;2023-07-28T00:47:00;2.90;;;2.00;;
80567;SDS011;69922;45.656;25.586;2023-07-28T00:48:09;3.30;;;2.30;;
80567;SDS011;69922;45.656;25.586;2023-07-28T00:49:17;2.70;;;1.90;;
80567;SDS011;69922;45.656;25.586;2023-07-28T00:50:23;4.30;;;2.40;;
80567;SDS011;69922;45.656;25.586;2023-07-28T00:51:31;4.20;;;3.10;;
80567;SDS011;69922;45.656;25.586;2023-07-28T00:52:37;4.80;;;2.80;;
80567;SDS011;69922;45.656;25.586;2023-07-28T00:53:43;3.50;;;2.50;;
80567;SDS011;69922;45.656;25.586;2023-07-28T00:54:50;3.80;;;2.80;;
80567;SDS011;69922;45.656;25.586;2023-07-28T00:55:56;4.40;;;2.90;;
80567;SDS011;69922;45.656;25.586;2023-07-28T00:57:03;4.90;;;3.10;;
80567;SDS011;69922;45.656;25.586;2023-07-28T00:58:09;3.80;;;2.60;;
80567;SDS011;69922;45.656;25.586;2023-07-28T00:59:19;5.40;;;2.90;;
80567;SDS011;69922;45.656;25.586;2023-07-28T01:00:26;5.80;;;2.70;;
80567;SDS011;69922;45.656;25.586;2023-07-28T01:01:33;4.20;;;2.90;;
80567;SDS011;69922;45.656;25.586;2023-07-28T01:02:39;7.40;;;2.90;;
80567;SDS011;69922;45.656;25.586;2023-07-28T01:03:46;4.70;;;2.80;;
80567;SDS011;69922;45.656;25.586;2023-07-28T01:04:52;3.60;;;2.60;;
80567;SDS011;69922;45.656;25.586;2023-07-28T01:06:01;4.20;;;2.40;;
80567;SDS011;69922;45.656;25.586;2023-07-28T01:07:20;4.10;;;2.90;;
80567;SDS011;69922;45.656;25.586;2023-07-28T01:08:32;3.10;;;2.60;;
80567;SDS011;69922;45.656;25.586;2023-07-28T01:09:45;3.70;;;2.80;;
80567;SDS011;69922;45.656;25.586;2023-07-28T01:10:55;5.10;;;2.90;;
80567;SDS011;69922;45.656;25.586;2023-07-28T01:12:01;5.00;;;3.20;;
80567;SDS011;69922;45.656;25.586;2023-07-28T01:13:13;3.70;;;2.80;;
80567;SDS011;69922;45.656;25.586;2023-07-28T01:14:26;6.00;;;2.90;;
80567;SDS011;69922;45.656;25.586;2023-07-28T01:15:32;4.20;;;2.80;;
80567;SDS011;69922;45.656;25.586;2023-07-28T01:16:39;5.70;;;3.20;;
80567;SDS011;69922;45.656;25.586;2023-07-28T01:17:45;4.70;;;3.00;;
80567;SDS011;69922;45.656;25.586;2023-07-28T01:18:52;4.80;;;2.80;;
80567;SDS011;69922;45.656;25.586;2023-07-28T01:19:58;4.90;;;2.80;;
80567;SDS011;69922;45.656;25.586;2023-07-28T01:21:06;4.80;;;2.60;;
80567;SDS011;69922;45.656;25.586;2023-07-28T01:22:22;3.00;;;2.30;;
80567;SDS011;69922;45.656;25.586;2023-07-28T01:23:47;4.40;;;2.60;;
80567;SDS011;69922;45.656;25.586;2023-07-28T01:25:05;4.20;;;2.40;;
80567;SDS011;69922;45.656;25.586;2023-07-28T01:27:32;4.40;;;2.60;;
80567;SDS011;69922;45.656;25.586;2023-07-28T01:29:47;6.30;;;3.30;;
80567;SDS011;69922;45.656;25.586;2023-07-28T01:30:53;3.30;;;3.00;;
80567;SDS011;69922;45.656;25.586;2023-07-28T01:32:00;4.20;;;2.90;;
80567;SDS011;69922;45.656;25.586;2023-07-28T01:33:07;5.60;;;2.90;;
80567;SDS011;69922;45.656;25.586;2023-07-28T01:34:13;7.40;;;3.30;;
80567;SDS011;69922;45.656;25.586;2023-07-28T01:35:19;4.00;;;3.30;;
80567;SDS011;69922;45.656;25.586;2023-07-28T01:36:25;8.00;;;2.90;;
80567;SDS011;69922;45.656;25.586;2023-07-28T01:37:32;6.10;;;3.10;;
80567;SDS011;69922;45.656;25.586;2023-07-28T01:38:39;5.90;;;3.00;;
80567;SDS011;69922;45.656;25.586;2023-07-28T01:39:46;4.10;;;2.30;;
80567;SDS011;69922;45.656;25.586;2023-07-28T01:40:52;4.30;;;2.80;;
80567;SDS011;69922;45.656;25.586;2023-07-28T01:41:58;5.70;;;3.60;;
80567;SDS011;69922;45.656;25.586;2023-07-28T01:43:04;5.20;;;2.80;;
80567;SDS011;69922;45.656;25.586;2023-07-28T01:44:12;5.30;;;3.40;;
80567;SDS011;69922;45.656;25.586;2023-07-28T01:45:18;5.10;;;3.60;;
80567;SDS011;69922;45.656;25.586;2023-07-28T01:46:25;4.70;;;3.40;;
80567;SDS011;69922;45.656;25.586;2023-07-28T01:47:31;6.20;;;3.70;;
80567;SDS011;69922;45.656;25.586;2023-07-28T01:48:37;6.00;;;3.60;;
80567;SDS011;69922;45.656;25.586;2023-07-28T01:49:43;10.10;;;4.20;;
80567;SDS011;69922;45.656;25.586;2023-07-28T01:50:49;7.00;;;3.30;;
80567;SDS011;69922;45.656;25.586;2023-07-28T01:51:56;4.60;;;3.20;;
80567;SDS011;69922;45.656;25.586;2023-07-28T01:53:03;4.80;;;3.10;;
80567;SDS011;69922;45.656;25.586;2023-07-28T01:54:10;5.40;;;3.40;;
80567;SDS011;69922;45.656;25.586;2023-07-28T01:55:16;4.30;;;3.30;;
80567;SDS011;69922;45.656;25.586;2023-07-28T01:56:22;5.20;;;2.90;;
80567;SDS011;69922;45.656;25.586;2023-07-28T01:57:30;6.00;;;3.10;;
80567;SDS011;69922;45.656;25.586;2023-07-28T01:58:36;5.10;;;2.80;;
80567;SDS011;69922;45.656;25.586;2023-07-28T01:59:43;3.90;;;3.20;;
80567;SDS011;69922;45.656;25.586;2023-07-28T02:00:48;5.90;;;3.70;;
80567;SDS011;69922;45.656;25.586;2023-07-28T02:01:55;4.80;;;3.70;;
80567;SDS011;69922;45.656;25.586;2023-07-28T02:03:02;4.80;;;3.30;;
80567;SDS011;69922;45.656;25.586;2023-07-28T02:04:08;7.50;;;3.80;;
80567;SDS011;69922;45.656;25.586;2023-07-28T02:05:15;5.60;;;3.80;;
80567;SDS011;69922;45.656;25.586;2023-07-28T02:06:21;4.60;;;3.40;;
80567;SDS011;69922;45.656;25.586;2023-07-28T02:07:28;5.10;;;3.30;;
80567;SDS011;69922;45.656;25.586;2023-07-28T02:08:34;5.80;;;4.20;;
80567;SDS011;69922;45.656;25.586;2023-07-28T02:09:40;5.10;;;3.00;;
80567;SDS011;69922;45.656;25.586;2023-07-28T02:10:47;6.80;;;3.00;;
80567;SDS011;69922;45.656;25.586;2023-07-28T02:11:53;4.00;;;3.10;;
80567;SDS011;69922;45.656;25.586;2023-07-28T02:12:58;5.60;;;3.00;;
80567;SDS011;69922;45.656;25.586;2023-07-28T02:14:05;4.10;;;2.90;;
80567;SDS011;69922;45.656;25.586;2023-07-28T02:15:11;6.00;;;3.60;;
80567;SDS011;69922;45.656;25.586;2023-07-28T02:16:17;8.20;;;3.40;;
80567;SDS011;69922;45.656;25.586;2023-07-28T02:17:24;5.40;;;3.60;;
80567;SDS011;69922;45.656;25.586;2023-07-28T02:18:30;6.20;;;3.60;;
80567;SDS011;69922;45.656;25.586;2023-07-28T02:19:36;6.20;;;3.20;;
80567;SDS011;69922;45.656;25.586;2023-07-28T02:20:42;5.30;;;3.80;;
80567;SDS011;69922;45.656;25.586;2023-07-28T02:22:56;4.30;;;3.20;;
80567;SDS011;69922;45.656;25.586;2023-07-28T02:24:03;3.90;;;3.10;;
80567;SDS011;69922;45.656;25.586;2023-07-28T02:25:10;4.50;;;3.40;;
80567;SDS011;69922;45.656;25.586;2023-07-28T02:26:17;3.90;;;3.10;;
80567;SDS011;69922;45.656;25.586;2023-07-28T02:27:23;7.60;;;3.30;;
80567;SDS011;69922;45.656;25.586;2023-07-28T02:28:30;7.20;;;3.40;;
80567;SDS011;69922;45.656;25.586;2023-07-28T02:29:36;4.50;;;3.40;;
80567;SDS011;69922;45.656;25.586;2023-07-28T02:30:42;6.00;;;3.20;;
80567;SDS011;69922;45.656;25.586;2023-07-28T02:31:49;5.70;;;3.40;;
80567;SDS011;69922;45.656;25.586;2023-07-28T02:32:55;5.70;;;3.20;;
80567;SDS011;69922;45.656;25.586;2023-07-28T02:34:02;6.30;;;3.60;;
80567;SDS011;69922;45.656;25.586;2023-07-28T02:35:08;6.80;;;3.80;;
80567;SDS011;69922;45.656;25.586;2023-07-28T02:36:15;6.30;;;3.90;;
80567;SDS011;69922;45.656;25.586;2023-07-28T02:37:21;4.80;;;2.90;;
80567;SDS011;69922;45.656;25.586;2023-07-28T02:38:28;4.80;;;3.10;;
80567;SDS011;69922;45.656;25.586;2023-07-28T02:39:34;5.50;;;3.10;;
80567;SDS011;69922;45.656;25.586;2023-07-28T02:40:40;4.50;;;2.80;;
80567;SDS011;69922;45.656;25.586;2023-07-28T02:41:46;3.60;;;2.80;;
80567;SDS011;69922;45.656;25.586;2023-07-28T02:42:52;4.70;;;3.40;;
80567;SDS011;69922;45.656;25.586;2023-07-28T02:43:58;5.20;;;3.50;;
80567;SDS011;69922;45.656;25.586;2023-07-28T02:45:06;5.50;;;3.20;;
80567;SDS011;69922;45.656;25.586;2023-07-28T02:46:14;5.50;;;2.90;;
80567;SDS011;69922;45.656;25.586;2023-07-28T02:47:20;6.20;;;3.40;;
80567;SDS011;69922;45.656;25.586;2023-07-28T02:48:27;6.40;;;3.80;;
80567;SDS011;69922;45.656;25.586;2023-07-28T02:49:33;6.40;;;3.40;;
80567;SDS011;69922;45.656;25.586;2023-07-28T02:50:39;4.80;;;3.90;;
80567;SDS011;69922;45.656;25.586;2023-07-28T02:51:51;5.30;;;3.50;;
80567;SDS011;69922;45.656;25.586;2023-07-28T02:52:57;4.30;;;3.30;;
80567;SDS011;69922;45.656;25.586;2023-07-28T02:54:04;6.00;;;4.20;;
80567;SDS011;69922;45.656;25.586;2023-07-28T02:55:10;6.20;;;3.20;;
80567;SDS011;69922;45.656;25.586;2023-07-28T02:56:16;7.30;;;3.00;;
80567;SDS011;69922;45.656;25.586;2023-07-28T02:57:24;9.30;;;3.60;;
80567;SDS011;69922;45.656;25.586;2023-07-28T02:58:30;4.90;;;3.00;;
80567;SDS011;69922;45.656;25.586;2023-07-28T02:59:37;6.30;;;3.20;;
80567;SDS011;69922;45.656;25.586;2023-07-28T03:00:43;7.60;;;3.30;;
80567;SDS011;69922;45.656;25.586;2023-07-28T03:01:50;5.50;;;4.10;;
80567;SDS011;69922;45.656;25.586;2023-07-28T03:02:57;6.50;;;3.70;;
80567;SDS011;69922;45.656;25.586;2023-07-28T03:04:03;6.40;;;3.80;;
80567;SDS011;69922;45.656;25.586;2023-07-28T03:05:10;5.00;;;3.40;;
80567;SDS011;69922;45.656;25.586;2023-07-28T03:06:18;4.30;;;3.50;;
80567;SDS011;69922;45.656;25.586;2023-07-28T03:07:24;7.50;;;3.60;;
80567;SDS011;69922;45.656;25.586;2023-07-28T03:08:29;6.30;;;3.60;;
80567;SDS011;69922;45.656;25.586;2023-07-28T03:09:35;5.70;;;3.10;;
80567;SDS011;69922;45.656;25.586;2023-07-28T03:10:41;6.00;;;3.20;;
80567;SDS011;69922;45.656;25.586;2023-07-28T03:11:47;3.70;;;3.00;;
80567;SDS011;69922;45.656;25.586;2023-07-28T03:12:53;5.40;;;3.00;;
80567;SDS011;69922;45.656;25.586;2023-07-28T03:14:00;8.80;;;3.40;;
80567;SDS011;69922;45.656;25.586;2023-07-28T03:15:09;7.10;;;4.10;;
80567;SDS011;69922;45.656;25.586;2023-07-28T03:16:15;8.50;;;3.20;;
80567;SDS011;69922;45.656;25.586;2023-07-28T03:17:22;9.60;;;3.90;;
80567;SDS011;69922;45.656;25.586;2023-07-28T03:18:29;6.80;;;4.10;;
80567;SDS011;69922;45.656;25.586;2023-07-28T03:19:35;7.40;;;3.80;;
80567;SDS011;69922;45.656;25.586;2023-07-28T03:20:42;4.80;;;3.60;;
80567;SDS011;69922;45.656;25.586;2023-07-28T03:21:47;6.80;;;4.10;;
80567;SDS011;69922;45.656;25.586;2023-07-28T03:22:53;8.00;;;4.40;;
80567;SDS011;69922;45.656;25.586;2023-07-28T03:24:00;4.40;;;3.40;;
80567;SDS011;69922;45.656;25.586;2023-07-28T03:25:07;6.00;;;3.60;;
80567;SDS011;69922;45.656;25.586;2023-07-28T03:26:13;8.00;;;3.70;;
80567;SDS011;69922;45.656;25.586;2023-07-28T03:27:19;6.30;;;3.40;;
80567;SDS011;69922;45.656;25.586;2023-07-28T03:28:25;5.30;;;3.30;;
80567;SDS011;69922;45.656;25.586;2023-07-28T03:29:32;7.50;;;4.00;;
80567;SDS011;69922;45.656;25.586;2023-07-28T03:30:38;6.80;;;3.70;;
80567;SDS011;69922;45.656;25.586;2023-07-28T03:31:44;8.60;;;4.40;;
80567;SDS011;69922;45.656;25.586;2023-07-28T03:32:50;6.00;;;3.80;;
80567;SDS011;69922;45.656;25.586;2023-07-28T03:33:57;5.30;;;3.30;;
80567;SDS011;69922;45.656;25.586;2023-07-28T03:35:05;5.30;;;3.60;;
80567;SDS011;69922;45.656;25.586;2023-07-28T03:36:13;5.30;;;3.70;;
80567;SDS011;69922;45.656;25.586;2023-07-28T03:37:19;7.50;;;3.50;;
80567;SDS011;69922;45.656;25.586;2023-07-28T03:38:25;8.00;;;3.40;;
80567;SDS011;69922;45.656;25.586;2023-07-28T03:39:32;5.40;;;3.50;;
80567;SDS011;69922;45.656;25.586;2023-07-28T03:40:38;5.30;;;3.30;;
80567;SDS011;69922;45.656;25.586;2023-07-28T03:41:45;4.70;;;3.30;;
80567;SDS011;69922;45.656;25.586;2023-07-28T03:42:51;6.40;;;3.50;;
80567;SDS011;69922;45.656;25.586;2023-07-28T03:43:57;4.80;;;3.10;;
80567;SDS011;69922;45.656;25.586;2023-07-28T03:45:13;6.10;;;3.30;;
80567;SDS011;69922;45.656;25.586;2023-07-28T03:46:20;7.30;;;4.00;;
80567;SDS011;69922;45.656;25.586;2023-07-28T03:47:26;6.80;;;3.60;;
80567;SDS011;69922;45.656;25.586;2023-07-28T03:48:32;7.60;;;4.20;;
80567;SDS011;69922;45.656;25.586;2023-07-28T03:49:39;5.40;;;3.40;;
80567;SDS011;69922;45.656;25.586;2023-07-28T03:50:45;5.90;;;3.80;;
80567;SDS011;69922;45.656;25.586;2023-07-28T03:51:51;6.00;;;3.40;;
80567;SDS011;69922;45.656;25.586;2023-07-28T03:52:57;4.60;;;3.50;;
80567;SDS011;69922;45.656;25.586;2023-07-28T03:54:03;5.80;;;3.90;;
80567;SDS011;69922;45.656;25.586;2023-07-28T03:55:10;9.80;;;4.00;;
80567;SDS011;69922;45.656;25.586;2023-07-28T03:56:16;7.30;;;5.00;;
80567;SDS011;69922;45.656;25.586;2023-07-28T03:57:22;6.40;;;3.60;;
80567;SDS011;69922;45.656;25.586;2023-07-28T03:58:29;6.80;;;4.20;;
80567;SDS011;69922;45.656;25.586;2023-07-28T03:59:35;5.30;;;3.50;;
80567;SDS011;69922;45.656;25.586;2023-07-28T04:00:42;7.00;;;4.20;;
80567;SDS011;69922;45.656;25.586;2023-07-28T04:01:48;6.90;;;3.90;;
80567;SDS011;69922;45.656;25.586;2023-07-28T04:02:54;6.60;;;3.80;;
80567;SDS011;69922;45.656;25.586;2023-07-28T04:04:01;7.40;;;4.10;;
80567;SDS011;69922;45.656;25.586;2023-07-28T04:05:12;6.90;;;4.00;;
80567;SDS011;69922;45.656;25.586;2023-07-28T04:06:19;7.90;;;4.40;;
80567;SDS011;69922;45.656;25.586;2023-07-28T04:07:43;5.80;;;3.90;;
80567;SDS011;69922;45.656;25.586;2023-07-28T04:08:50;7.40;;;4.00;;
80567;SDS011;69922;45.656;25.586;2023-07-28T04:09:57;4.90;;;3.30;;
80567;SDS011;69922;45.656;25.586;2023-07-28T04:11:03;6.50;;;3.30;;
80567;SDS011;69922;45.656;25.586;2023-07-28T04:12:09;7.20;;;3.30;;
80567;SDS011;69922;45.656;25.586;2023-07-28T04:13:15;6.40;;;4.00;;
80567;SDS011;69922;45.656;25.586;2023-07-28T04:14:22;4.50;;;3.30;;
80567;SDS011;69922;45.656;25.586;2023-07-28T04:15:28;5.50;;;3.50;;
80567;SDS011;69922;45.656;25.586;2023-07-28T04:16:34;4.70;;;3.80;;
80567;SDS011;69922;45.656;25.586;2023-07-28T04:17:41;5.50;;;3.60;;
80567;SDS011;69922;45.656;25.586;2023-07-28T04:18:48;9.30;;;4.10;;
80567;SDS011;69922;45.656;25.586;2023-07-28T04:19:54;5.50;;;3.50;;
80567;SDS011;69922;45.656;25.586;2023-07-28T04:21:00;6.30;;;4.10;;
80567;SDS011;69922;45.656;25.586;2023-07-28T04:22:07;7.20;;;3.80;;
80567;SDS011;69922;45.656;25.586;2023-07-28T04:23:13;5.60;;;4.40;;
80567;SDS011;69922;45.656;25.586;2023-07-28T04:24:19;4.50;;;3.70;;
80567;SDS011;69922;45.656;25.586;2023-07-28T04:25:25;7.90;;;4.10;;
80567;SDS011;69922;45.656;25.586;2023-07-28T04:26:32;4.90;;;3.50;;
80567;SDS011;69922;45.656;25.586;2023-07-28T04:27:39;5.60;;;4.20;;
80567;SDS011;69922;45.656;25.586;2023-07-28T04:28:46;7.80;;;3.20;;
80567;SDS011;69922;45.656;25.586;2023-07-28T04:29:52;4.40;;;3.50;;
80567;SDS011;69922;45.656;25.586;2023-07-28T04:30:59;10.50;;;3.70;;
80567;SDS011;69922;45.656;25.586;2023-07-28T04:32:06;6.50;;;3.50;;
80567;SDS011;69922;45.656;25.586;2023-07-28T04:33:13;8.10;;;3.70;;
80567;SDS011;69922;45.656;25.586;2023-07-28T04:34:19;5.80;;;3.70;;
80567;SDS011;69922;45.656;25.586;2023-07-28T04:35:26;6.40;;;3.60;;
80567;SDS011;69922;45.656;25.586;2023-07-28T04:36:34;5.80;;;3.80;;
80567;SDS011;69922;45.656;25.586;2023-07-28T04:37:41;4.20;;;3.20;;
80567;SDS011;69922;45.656;25.586;2023-07-28T04:38:48;8.70;;;3.50;;
80567;SDS011;69922;45.656;25.586;2023-07-28T04:39:55;6.80;;;4.10;;
80567;SDS011;69922;45.656;25.586;2023-07-28T04:41:01;6.50;;;4.50;;
80567;SDS011;69922;45.656;25.586;2023-07-28T04:42:08;7.40;;;3.70;;
80567;SDS011;69922;45.656;25.586;2023-07-28T04:43:14;5.80;;;4.00;;
80567;SDS011;69922;45.656;25.586;2023-07-28T04:44:20;5.50;;;3.50;;
80567;SDS011;69922;45.656;25.586;2023-07-28T04:45:28;4.00;;;3.30;;
80567;SDS011;69922;45.656;25.586;2023-07-28T04:46:33;6.20;;;3.60;;
80567;SDS011;69922;45.656;25.586;2023-07-28T04:47:40;6.50;;;4.00;;
80567;SDS011;69922;45.656;25.586;2023-07-28T04:48:47;6.10;;;3.80;;
80567;SDS011;69922;45.656;25.586;2023-07-28T04:49:53;5.00;;;3.50;;
80567;SDS011;69922;45.656;25.586;2023-07-28T04:51:00;4.80;;;3.60;;
80567;SDS011;69922;45.656;25.586;2023-07-28T04:52:08;6.20;;;4.10;;
80567;SDS011;69922;45.656;25.586;2023-07-28T04:53:15;9.30;;;4.10;;
80567;SDS011;69922;45.656;25.586;2023-07-28T04:54:21;7.40;;;4.60;;
80567;SDS011;69922;45.656;25.586;2023-07-28T04:55:27;5.70;;;3.80;;
80567;SDS011;69922;45.656;25.586;2023-07-28T04:56:33;6.60;;;3.60;;
80567;SDS011;69922;45.656;25.586;2023-07-28T04:57:40;5.50;;;4.30;;
80567;SDS011;69922;45.656;25.586;2023-07-28T04:58:47;5.60;;;4.10;;
80567;SDS011;69922;45.656;25.586;2023-07-28T04:59:52;6.20;;;4.30;;
80567;SDS011;69922;45.656;25.586;2023-07-28T05:00:59;6.80;;;4.20;;
80567;SDS011;69922;45.656;25.586;2023-07-28T05:02:07;6.30;;;3.50;;
80567;SDS011;69922;45.656;25.586;2023-07-28T05:03:14;4.80;;;3.20;;
80567;SDS011;69922;45.656;25.586;2023-07-28T05:04:20;6.40;;;3.30;;
80567;SDS011;69922;45.656;25.586;2023-07-28T05:05:28;4.70;;;3.10;;
80567;SDS011;69922;45.656;25.586;2023-07-28T05:06:36;7.20;;;3.80;;
80567;SDS011;69922;45.656;25.586;2023-07-28T05:07:42;5.70;;;3.80;;
80567;SDS011;69922;45.656;25.586;2023-07-28T05:08:48;9.30;;;4.10;;
80567;SDS011;69922;45.656;25.586;2023-07-28T05:09:55;7.80;;;3.90;;
80567;SDS011;69922;45.656;25.586;2023-07-28T05:11:02;6.50;;;3.70;;
80567;SDS011;69922;45.656;25.586;2023-07-28T05:12:11;8.10;;;4.00;;
80567;SDS011;69922;45.656;25.586;2023-07-28T05:13:19;7.60;;;3.80;;
80567;SDS011;69922;45.656;25.586;2023-07-28T05:14:25;6.20;;;3.80;;
80567;SDS011;69922;45.656;25.586;2023-07-28T05:15:38;5.40;;;3.20;;
80567;SDS011;69922;45.656;25.586;2023-07-28T05:16:44;8.70;;;3.70;;
80567;SDS011;69922;45.656;25.586;2023-07-28T05:18:58;5.70;;;3.50;;
80567;SDS011;69922;45.656;25.586;2023-07-28T05:20:05;8.50;;;3.80;;
80567;SDS011;69922;45.656;25.586;2023-07-28T05:21:12;7.80;;;3.70;;
80567;SDS011;69922;45.656;25.586;2023-07-28T05:22:18;6.80;;;4.00;;
80567;SDS011;69922;45.656;25.586;2023-07-28T05:23:25;7.00;;;4.00;;
80567;SDS011;69922;45.656;25.586;2023-07-28T05:24:31;7.80;;;3.50;;
80567;SDS011;69922;45.656;25.586;2023-07-28T05:25:37;8.20;;;3.70;;
80567;SDS011;69922;45.656;25.586;2023-07-28T05:26:48;6.90;;;3.70;;
80567;SDS011;69922;45.656;25.586;2023-07-28T05:27:54;6.00;;;3.00;;
80567;SDS011;69922;45.656;25.586;2023-07-28T05:29:00;6.90;;;3.60;;
80567;SDS011;69922;45.656;25.586;2023-07-28T05:30:09;7.90;;;4.30;;
80567;SDS011;69922;45.656;25.586;2023-07-28T05:31:16;6.20;;;3.60;;
80567;SDS011;69922;45.656;25.586;2023-07-28T05:32:22;9.40;;;3.50;;
80567;SDS011;69922;45.656;25.586;2023-07-28T05:33:29;5.90;;;3.20;;
80567;SDS011;69922;45.656;25.586;2023-07-28T05:34:36;7.90;;;3.70;;
80567;SDS011;69922;45.656;25.586;2023-07-28T05:35:42;7.10;;;3.40;;
80567;SDS011;69922;45.656;25.586;2023-07-28T05:36:49;7.30;;;3.30;;
80567;SDS011;69922;45.656;25.586;2023-07-28T05:37:55;7.00;;;3.90;;
80567;SDS011;69922;45.656;25.586;2023-07-28T05:39:01;7.00;;;3.50;;
80567;SDS011;69922;45.656;25.586;2023-07-28T05:40:09;7.10;;;3.50;;
80567;SDS011;69922;45.656;25.586;2023-07-28T05:41:18;6.20;;;3.70;;
80567;SDS011;69922;45.656;25.586;2023-07-28T05:42:24;6.90;;;3.80;;
80567;SDS011;69922;45.656;25.586;2023-07-28T05:43:32;6.50;;;4.00;;
80567;SDS011;69922;45.656;25.586;2023-07-28T05:44:38;6.10;;;3.40;;
80567;SDS011;69922;45.656;25.586;2023-07-28T05:45:47;9.50;;;4.50;;
80567;SDS011;69922;45.656;25.586;2023-07-28T05:46:53;7.40;;;4.00;;
80567;SDS011;69922;45.656;25.586;2023-07-28T05:47:59;6.30;;;4.10;;
80567;SDS011;69922;45.656;25.586;2023-07-28T05:49:05;9.20;;;3.50;;
80567;SDS011;69922;45.656;25.586;2023-07-28T05:50:12;6.20;;;3.50;;
80567;SDS011;69922;45.656;25.586;2023-07-28T05:51:18;4.70;;;3.40;;
80567;SDS011;69922;45.656;25.586;2023-07-28T05:52:26;8.80;;;3.10;;
80567;SDS011;69922;45.656;25.586;2023-07-28T05:53:32;8.40;;;3.50;;
80567;SDS011;69922;45.656;25.586;2023-07-28T05:54:38;8.20;;;3.80;;
80567;SDS011;69922;45.656;25.586;2023-07-28T05:55:45;5.90;;;3.80;;
80567;SDS011;69922;45.656;25.586;2023-07-28T05:56:52;8.70;;;4.20;;
80567;SDS011;69922;45.656;25.586;2023-07-28T05:57:58;7.10;;;4.00;;
80567;SDS011;69922;45.656;25.586;2023-07-28T05:59:04;6.10;;;3.80;;
80567;SDS011;69922;45.656;25.586;2023-07-28T06:00:12;7.90;;;4.10;;
80567;SDS011;69922;45.656;25.586;2023-07-28T06:01:21;7.20;;;4.00;;
80567;SDS011;69922;45.656;25.586;2023-07-28T06:02:29;5.20;;;3.90;;
80567;SDS011;69922;45.656;25.586;2023-07-28T06:03:36;5.90;;;3.40;;
80567;SDS011;69922;45.656;25.586;2023-07-28T06:04:43;7.90;;;3.90;;
80567;SDS011;69922;45.656;25.586;2023-07-28T06:05:49;6.80;;;5.70;;
80567;SDS011;69922;45.656;25.586;2023-07-28T06:06:55;7.90;;;4.20;;
80567;SDS011;69922;45.656;25.586;2023-07-28T06:08:01;5.30;;;3.90;;
80567;SDS011;69922;45.656;25.586;2023-07-28T06:09:08;8.00;;;3.90;;
80567;SDS011;69922;45.656;25.586;2023-07-28T06:10:15;6.70;;;3.70;;
80567;SDS011;69922;45.656;25.586;2023-07-28T06:11:21;5.60;;;3.40;;
80567;SDS011;69922;45.656;25.586;2023-07-28T06:12:28;9.10;;;3.80;;
80567;SDS011;69922;45.656;25.586;2023-07-28T06:13:35;8.20;;;3.90;;
80567;SDS011;69922;45.656;25.586;2023-07-28T06:14:42;5.40;;;3.70;;
80567;SDS011;69922;45.656;25.586;2023-07-28T06:15:48;6.80;;;3.40;;
80567;SDS011;69922;45.656;25.586;2023-07-28T06:17:03;10.60;;;3.50;;
80567;SDS011;69922;45.656;25.586;2023-07-28T06:18:11;5.90;;;3.40;;
80567;SDS011;69922;45.656;25.586;2023-07-28T06:19:18;6.90;;;3.60;;
80567;SDS011;69922;45.656;25.586;2023-07-28T06:20:28;6.10;;;3.30;;
80567;SDS011;69922;45.656;25.586;2023-07-28T06:21:34;5.10;;;3.50;;
80567;SDS011;69922;45.656;25.586;2023-07-28T06:22:41;3.80;;;2.90;;
80567;SDS011;69922;45.656;25.586;2023-07-28T06:23:47;3.90;;;2.70;;
80567;SDS011;69922;45.656;25.586;2023-07-28T06:24:54;6.60;;;2.90;;
80567;SDS011;69922;45.656;25.586;2023-07-28T06:26:00;6.30;;;3.10;;
80567;SDS011;69922;45.656;25.586;2023-07-28T06:27:07;6.10;;;2.90;;
80567;SDS011;69922;45.656;25.586;2023-07-28T06:28:15;6.10;;;3.80;;
80567;SDS011;69922;45.656;25.586;2023-07-28T06:29:22;8.10;;;3.70;;
80567;SDS011;69922;45.656;25.586;2023-07-28T06:30:27;5.50;;;3.10;;
80567;SDS011;69922;45.656;25.586;2023-07-28T06:31:36;5.90;;;3.00;;
80567;SDS011;69922;45.656;25.586;2023-07-28T06:32:42;4.10;;;2.90;;
80567;SDS011;69922;45.656;25.586;2023-07-28T06:33:51;5.40;;;2.90;;
80567;SDS011;69922;45.656;25.586;2023-07-28T06:34:57;4.90;;;3.60;;
80567;SDS011;69922;45.656;25.586;2023-07-28T06:36:03;5.50;;;3.30;;
80567;SDS011;69922;45.656;25.586;2023-07-28T06:37:09;6.70;;;2.60;;
80567;SDS011;69922;45.656;25.586;2023-07-28T06:38:16;5.90;;;3.00;;
80567;SDS011;69922;45.656;25.586;2023-07-28T06:39:23;6.70;;;2.80;;
80567;SDS011;69922;45.656;25.586;2023-07-28T06:40:29;6.40;;;2.70;;
80567;SDS011;69922;45.656;25.586;2023-07-28T06:41:35;3.60;;;2.60;;